Time;durP1;ratioP1;P1;durP2;ratioP2;P2;SDS_P1;SDS_P2;PMS_P1;PMS_P2;Temp;Humidity;BMP_temperature;BMP_pressure;BME280_temperature;BME280_humidity;BME280_pressure;Samples;Min_cycle;Max_cycle;Signal;HPM_P1;HPM_P2
2023/08/08 00:01:09;;;;;;;1.65;1.00;;;17.40;55.70;;;;;;4988136;28;20054;-51
2023/08/08 00:03:36;;;;;;;4.95;1.20;;;17.40;55.70;;;;;;4985624;28;20058;-51
2023/08/08 00:06:03;;;;;;;2.03;1.10;;;17.40;55.70;;;;;;4988195;28;20398;-49
2023/08/08 00:08:31;;;;;;;2.53;1.17;;;17.40;55.70;;;;;;4987143;28;20053;-54
2023/08/08 00:10:58;;;;;;;14.00;1.65;;;17.40;55.70;;;;;;4985923;28;20062;-54
2023/08/08 00:13:26;;;;;;;2.22;1.20;;;17.40;55.80;;;;;;4985384;28;20062;-56
2023/08/08 00:15:54;;;;;;;2.53;1.10;;;17.30;55.80;;;;;;4987654;28;20379;-52
2023/08/08 00:18:21;;;;;;;1.58;1.00;;;17.30;55.80;;;;;;4987162;28;20057;-49
2023/08/08 00:20:48;;;;;;;2.53;1.00;;;17.30;55.80;;;;;;4985147;28;20514;-50
2023/08/08 00:23:15;;;;;;;5.40;2.05;;;17.30;55.80;;;;;;4985903;28;20248;-52
2023/08/08 00:25:43;;;;;;;2.92;1.10;;;17.20;55.90;;;;;;4985095;28;20058;-52
2023/08/08 00:28:10;;;;;;;2.28;1.15;;;17.20;55.90;;;;;;4984133;28;20058;-48
2023/08/08 00:30:39;;;;;;;3.90;1.40;;;17.20;56.00;;;;;;4984416;28;20061;-50
2023/08/08 00:33:06;;;;;;;1.63;0.95;;;17.20;56.00;;;;;;4984094;28;20055;-52
2023/08/08 00:35:33;;;;;;;2.50;0.98;;;17.20;56.00;;;;;;4985726;28;20046;-53
2023/08/08 00:38:00;;;;;;;1.92;1.17;;;17.20;56.10;;;;;;4985690;28;20046;-52
2023/08/08 00:40:27;;;;;;;2.25;1.20;;;17.20;56.10;;;;;;4986360;28;20049;-55
2023/08/08 00:42:55;;;;;;;2.97;1.50;;;17.20;56.10;;;;;;4984605;28;20054;-53
2023/08/08 00:45:22;;;;;;;4.07;1.40;;;17.20;56.10;;;;;;4985576;28;20064;-53
2023/08/08 00:47:50;;;;;;;2.35;1.13;;;17.20;56.10;;;;;;4986185;28;20058;-50
2023/08/08 00:50:18;;;;;;;3.85;1.35;;;17.20;56.10;;;;;;4986259;28;20054;-49
2023/08/08 00:52:46;;;;;;;3.95;1.30;;;17.20;56.00;;;;;;4984584;28;20054;-48
2023/08/08 00:55:14;;;;;;;2.22;1.30;;;17.20;56.00;;;;;;4984346;28;20057;-55
2023/08/08 00:57:41;;;;;;;2.75;1.35;;;17.20;56.00;;;;;;4983679;28;20054;-51
2023/08/08 01:02:39;;;;;;;1.98;1.30;;;17.20;56.00;;;;;;5037265;28;20455;-47
2023/08/08 01:05:08;;;;;;;1.58;1.08;;;17.20;55.90;;;;;;5038328;28;20045;-43
2023/08/08 01:07:44;;;;;;;6.07;1.30;;;17.10;55.90;;;;;;5040816;28;20064;-45
2023/08/08 01:10:16;;;;;;;3.80;1.42;;;17.10;55.80;;;;;;5039085;28;20412;-47
2023/08/08 01:12:47;;;;;;;2.60;1.35;;;17.20;55.80;;;;;;5039773;28;20534;-46
2023/08/08 01:15:15;;;;;;;3.03;1.50;;;17.10;55.70;;;;;;5039649;28;20056;-47
2023/08/08 01:17:43;;;;;;;2.03;1.08;;;17.10;55.70;;;;;;5040709;28;20420;-45
2023/08/08 01:20:16;;;;;;;2.28;1.10;;;17.10;55.70;;;;;;5028916;28;20064;-45
2023/08/08 01:22:54;;;;;;;3.28;1.40;;;17.10;55.70;;;;;;5038843;28;20049;-46
2023/08/08 01:25:23;;;;;;;3.25;1.25;;;17.10;55.60;;;;;;5039077;28;20057;-47
2023/08/08 01:27:51;;;;;;;1.73;0.88;;;17.10;55.70;;;;;;5036929;28;20060;-46
2023/08/08 01:30:18;;;;;;;1.30;1.00;;;17.10;55.70;;;;;;5039380;28;20606;-51
2023/08/08 01:32:45;;;;;;;2.75;1.13;;;17.00;55.70;;;;;;5040290;28;20056;-48
2023/08/08 01:35:13;;;;;;;2.17;1.10;;;17.00;55.80;;;;;;5040305;28;20060;-47
2023/08/08 01:37:45;;;;;;;1.20;1.10;;;17.00;55.90;;;;;;5032342;28;20520;-45
2023/08/08 01:40:16;;;;;;;4.25;1.10;;;17.00;56.00;;;;;;5037135;28;20057;-44
2023/08/08 01:42:47;;;;;;;1.58;1.30;;;17.00;56.10;;;;;;5037922;28;20076;-48
2023/08/08 01:45:16;;;;;;;2.63;1.40;;;17.00;56.00;;;;;;5040020;28;20049;-48
2023/08/08 01:47:44;;;;;;;2.38;1.52;;;17.00;56.50;;;;;;5040279;28;20053;-45
2023/08/08 01:50:11;;;;;;;5.30;1.55;;;17.00;55.90;;;;;;5038357;28;20041;-47
2023/08/08 01:52:38;;;;;;;2.33;1.15;;;17.00;56.00;;;;;;5039838;28;20056;-45
2023/08/08 01:55:07;;;;;;;2.90;1.33;;;17.00;56.10;;;;;;5037247;28;20514;-44
2023/08/08 01:57:34;;;;;;;2.63;1.23;;;17.00;56.10;;;;;;5038823;28;20488;-44
2023/08/08 02:00:04;;;;;;;2.25;1.30;;;17.00;56.10;;;;;;5054728;28;20064;-45
2023/08/08 02:02:31;;;;;;;6.18;1.70;;;17.00;56.10;;;;;;5052066;28;20061;-46
2023/08/08 02:04:58;;;;;;;3.63;1.40;;;17.00;56.10;;;;;;5036844;28;20049;-55
2023/08/08 02:07:25;;;;;;;2.95;1.40;;;16.90;56.10;;;;;;5038020;28;20434;-57
2023/08/08 02:09:53;;;;;;;1.75;1.30;;;17.00;56.20;;;;;;5036887;28;20064;-58
2023/08/08 02:12:20;;;;;;;2.75;1.45;;;17.00;56.20;;;;;;5037626;28;20072;-57
2023/08/08 02:14:47;;;;;;;3.80;1.33;;;17.00;56.20;;;;;;5038372;28;20064;-53
2023/08/08 02:17:16;;;;;;;3.58;1.40;;;17.00;56.20;;;;;;5038686;28;20061;-57
2023/08/08 02:19:43;;;;;;;6.45;1.55;;;17.00;56.20;;;;;;5039094;28;20508;-57
2023/08/08 02:22:10;;;;;;;2.08;1.30;;;17.00;56.20;;;;;;5038094;28;20052;-57
2023/08/08 02:24:38;;;;;;;2.25;1.20;;;17.00;56.30;;;;;;5037828;28;20060;-57
2023/08/08 02:27:05;;;;;;;3.05;1.42;;;17.00;56.30;;;;;;5036138;28;20049;-57
2023/08/08 02:29:32;;;;;;;2.35;1.30;;;17.00;56.40;;;;;;5038935;28;20056;-57
2023/08/08 02:32:00;;;;;;;2.97;1.20;;;16.90;56.30;;;;;;5037665;28;20455;-56
2023/08/08 02:34:28;;;;;;;3.20;1.50;;;17.00;56.40;;;;;;5039038;28;20059;-54
2023/08/08 02:36:55;;;;;;;3.97;1.80;;;17.00;56.50;;;;;;5034873;28;20385;-56
2023/08/08 02:39:23;;;;;;;3.67;1.50;;;17.00;56.40;;;;;;5038666;28;20060;-57
2023/08/08 02:41:50;;;;;;;2.65;1.40;;;17.00;56.40;;;;;;5037216;28;20591;-57
2023/08/08 02:44:19;;;;;;;5.30;1.75;;;17.00;56.40;;;;;;5038952;28;20056;-57
2023/08/08 02:46:46;;;;;;;3.03;1.45;;;16.90;56.30;;;;;;5036402;28;20424;-52
2023/08/08 02:49:13;;;;;;;2.15;1.38;;;16.90;56.30;;;;;;5040221;28;20052;-53
2023/08/08 02:51:42;;;;;;;2.72;1.30;;;16.90;56.40;;;;;;5042306;28;20049;-51
2023/08/08 02:54:09;;;;;;;3.78;1.35;;;16.90;56.30;;;;;;5043151;28;20068;-57
2023/08/08 02:56:36;;;;;;;4.15;1.40;;;16.90;56.30;;;;;;5037678;28;20057;-55
2023/08/08 02:59:04;;;;;;;4.95;1.67;;;16.90;56.40;;;;;;5041547;28;20061;-56
2023/08/08 03:01:31;;;;;;;2.55;1.35;;;16.90;56.40;;;;;;5042631;28;20602;-58
2023/08/08 03:03:59;;;;;;;6.22;2.03;;;16.90;56.40;;;;;;5043911;28;20072;-57
2023/08/08 03:06:26;;;;;;;6.10;1.48;;;16.90;56.30;;;;;;5036963;28;20067;-54
2023/08/08 03:08:55;;;;;;;5.85;1.50;;;16.90;56.30;;;;;;5041215;28;20064;-55
2023/08/08 03:11:22;;;;;;;2.35;1.27;;;16.90;56.30;;;;;;5039767;28;20613;-56
2023/08/08 03:13:49;;;;;;;3.65;1.20;;;16.90;56.40;;;;;;5036192;28;20073;-56
2023/08/08 03:16:16;;;;;;;3.28;1.50;;;16.90;56.40;;;;;;5040662;28;20041;-55
2023/08/08 03:18:43;;;;;;;1.55;1.10;;;16.90;56.40;;;;;;5042488;28;20415;-55
2023/08/08 03:21:11;;;;;;;5.82;1.60;;;16.90;56.30;;;;;;5043237;28;20053;-56
2023/08/08 03:23:38;;;;;;;3.08;1.50;;;16.90;56.20;;;;;;5042217;28;20492;-57
2023/08/08 03:26:06;;;;;;;3.35;1.20;;;16.90;56.20;;;;;;5038323;28;20052;-52
2023/08/08 03:28:34;;;;;;;4.15;1.45;;;16.90;56.10;;;;;;5041576;28;20068;-56
2023/08/08 03:31:03;;;;;;;2.42;1.30;;;16.90;56.10;;;;;;5039855;28;20049;-55
2023/08/08 03:33:30;;;;;;;3.67;1.25;;;16.80;56.00;;;;;;5042712;28;20516;-55
2023/08/08 03:35:57;;;;;;;6.28;2.35;;;16.80;56.00;;;;;;5039890;28;20141;-55
2023/08/08 03:38:24;;;;;;;2.83;1.30;;;16.80;55.90;;;;;;5040341;28;20061;-56
2023/08/08 03:40:52;;;;;;;3.53;1.25;;;16.80;55.80;;;;;;5041953;28;20064;-55
2023/08/08 03:43:20;;;;;;;2.58;1.20;;;16.80;55.70;;;;;;5040974;28;20063;-55
2023/08/08 03:45:48;;;;;;;4.93;1.13;;;16.80;55.70;;;;;;5039216;28;20591;-56
2023/08/08 03:48:16;;;;;;;1.45;0.80;;;16.80;55.70;;;;;;5033209;28;20068;-53
2023/08/08 03:50:43;;;;;;;3.42;1.40;;;16.70;55.60;;;;;;5040935;28;20055;-55
2023/08/08 03:53:10;;;;;;;1.83;1.10;;;16.80;55.60;;;;;;5041435;28;20469;-56
2023/08/08 03:55:37;;;;;;;3.08;1.00;;;16.80;55.60;;;;;;5039433;28;20048;-55
2023/08/08 03:58:05;;;;;;;2.88;1.38;;;16.80;55.50;;;;;;5037446;28;20475;-56
2023/08/08 04:00:34;;;;;;;1.65;1.13;;;16.80;55.50;;;;;;5040229;28;20059;-51
2023/08/08 04:03:01;;;;;;;4.70;1.33;;;16.70;55.40;;;;;;5041046;28;20049;-55
2023/08/08 04:05:28;;;;;;;2.08;1.00;;;16.70;55.30;;;;;;5037961;28;20411;-56
2023/08/08 04:07:56;;;;;;;1.80;1.08;;;16.70;55.40;;;;;;5039949;28;20052;-56
2023/08/08 04:10:23;;;;;;;3.42;1.67;;;16.70;55.50;;;;;;5040436;28;20057;-56
2023/08/08 04:12:50;;;;;;;2.35;1.23;;;16.70;55.60;;;;;;5035764;28;20433;-56
2023/08/08 04:15:17;;;;;;;2.13;1.10;;;16.70;55.60;;;;;;5042977;28;20056;-56
2023/08/08 04:17:46;;;;;;;2.67;1.00;;;16.70;55.70;;;;;;5035390;28;20049;-55
2023/08/08 04:20:14;;;;;;;3.20;0.98;;;16.70;55.60;;;;;;5036136;28;20057;-54
2023/08/08 04:22:41;;;;;;;9.50;3.80;;;16.70;55.50;;;;;;5039604;28;20060;-56
2023/08/08 04:25:09;;;;;;;21.27;9.90;;;16.70;55.50;;;;;;5039302;28;20481;-56
2023/08/08 04:27:36;;;;;;;10.52;4.63;;;16.70;55.50;;;;;;5031734;28;20060;-56
2023/08/08 04:30:04;;;;;;;3.55;1.80;;;16.60;55.50;;;;;;5041570;28;20362;-57
2023/08/08 04:32:31;;;;;;;2.63;1.40;;;16.60;55.50;;;;;;5036556;28;20064;-56
2023/08/08 04:35:00;;;;;;;2.28;1.15;;;16.60;55.50;;;;;;5040919;28;20431;-57
2023/08/08 04:37:27;;;;;;;3.70;1.35;;;16.60;55.60;;;;;;5039153;28;20481;-56
2023/08/08 04:39:54;;;;;;;3.85;1.35;;;16.60;55.70;;;;;;5040127;28;20053;-56
2023/08/08 04:42:21;;;;;;;2.72;1.40;;;16.60;55.70;;;;;;5039039;28;20053;-56
2023/08/08 04:44:49;;;;;;;2.70;1.00;;;16.50;55.70;;;;;;5041190;28;20484;-57
2023/08/08 04:47:16;;;;;;;2.17;1.40;;;16.50;55.70;;;;;;5040101;28;20087;-54
2023/08/08 04:49:43;;;;;;;2.70;1.20;;;16.50;55.70;;;;;;5040174;28;20052;-56
2023/08/08 04:52:12;;;;;;;3.03;1.45;;;16.50;55.80;;;;;;5038767;28;20052;-56
2023/08/08 04:54:39;;;;;;;6.15;1.40;;;16.40;55.80;;;;;;5042232;28;20064;-56
2023/08/08 04:57:07;;;;;;;2.78;1.00;;;16.40;55.90;;;;;;5038436;28;20080;-55
2023/08/08 04:59:34;;;;;;;5.60;1.35;;;16.40;55.90;;;;;;5039222;28;20472;-54
2023/08/08 05:02:01;;;;;;;3.53;1.38;;;16.40;56.00;;;;;;5039367;28;20057;-55
2023/08/08 05:04:28;;;;;;;3.33;1.35;;;16.30;56.00;;;;;;5039177;28;20056;-53
2023/08/08 05:06:57;;;;;;;5.35;1.48;;;16.30;56.20;;;;;;5039947;28;20053;-56
2023/08/08 05:09:26;;;;;;;3.50;1.23;;;16.30;56.20;;;;;;5040828;28;20484;-55
2023/08/08 05:11:53;;;;;;;4.22;1.33;;;16.30;56.20;;;;;;5037018;28;20048;-55
2023/08/08 05:14:21;;;;;;;2.40;1.25;;;16.30;56.30;;;;;;5038251;28;20492;-52
2023/08/08 05:16:48;;;;;;;2.33;1.15;;;16.30;56.40;;;;;;5038268;28;20495;-55
2023/08/08 05:19:15;;;;;;;3.05;1.70;;;16.30;56.40;;;;;;4996506;28;20045;-56
2023/08/08 05:21:42;;;;;;;3.60;1.20;;;16.30;56.50;;;;;;5017367;28;20057;-53
2023/08/08 05:24:10;;;;;;;2.92;1.25;;;16.30;56.50;;;;;;5016748;28;20971;-52
2023/08/08 05:26:38;;;;;;;9.45;1.75;;;16.30;56.50;;;;;;5015394;28;20053;-57
2023/08/08 05:29:05;;;;;;;4.55;1.13;;;16.30;56.50;;;;;;5019890;28;20519;-56
2023/08/08 05:31:33;;;;;;;3.63;1.52;;;16.30;57.10;;;;;;5015661;28;20049;-55
2023/08/08 05:34:00;;;;;;;4.53;1.15;;;16.30;56.70;;;;;;5017783;28;20049;-54
2023/08/08 05:36:27;;;;;;;2.65;1.60;;;16.30;56.70;;;;;;5019044;28;20045;-55
2023/08/08 05:38:54;;;;;;;2.55;1.35;;;16.30;56.70;;;;;;5013158;28;20077;-54
2023/08/08 05:41:22;;;;;;;5.05;1.40;;;16.30;56.80;;;;;;5018685;28;20068;-54
2023/08/08 05:43:50;;;;;;;3.75;1.20;;;16.40;56.90;;;;;;5019477;28;20064;-53
2023/08/08 05:46:17;;;;;;;6.55;1.85;;;16.30;56.80;;;;;;5019633;28;20049;-57
2023/08/08 05:48:46;;;;;;;3.08;1.65;;;16.40;56.90;;;;;;5016022;28;20064;-57
2023/08/08 05:51:13;;;;;;;3.15;1.67;;;16.40;56.90;;;;;;5019476;28;20083;-56
2023/08/08 05:53:40;;;;;;;5.80;1.70;;;16.40;57.00;;;;;;5017206;28;20496;-57
2023/08/08 05:56:08;;;;;;;4.63;1.30;;;16.50;57.00;;;;;;5015993;28;20059;-57
2023/08/08 05:58:36;;;;;;;2.53;1.25;;;16.50;57.10;;;;;;5019501;28;20053;-57
2023/08/08 06:01:06;;;;;;;3.67;1.30;;;16.50;57.10;;;;;;5019766;28;20064;-57
2023/08/08 06:03:33;;;;;;;2.65;1.35;;;16.50;57.20;;;;;;5019673;28;20057;-55
2023/08/08 06:06:00;;;;;;;2.50;1.35;;;16.60;57.30;;;;;;5017041;28;20056;-56
2023/08/08 06:08:27;;;;;;;5.60;1.48;;;16.60;57.30;;;;;;5016369;28;20050;-56
2023/08/08 06:10:55;;;;;;;6.18;1.40;;;16.70;57.40;;;;;;5015523;28;20064;-53
2023/08/08 06:13:22;;;;;;;4.78;1.80;;;16.70;57.50;;;;;;5013147;28;20493;-53
2023/08/08 06:15:49;;;;;;;3.03;1.38;;;16.80;57.50;;;;;;5015741;28;20462;-57
2023/08/08 06:18:18;;;;;;;4.03;1.15;;;16.80;57.40;;;;;;5017122;28;20045;-57
2023/08/08 06:20:45;;;;;;;1.98;1.30;;;16.90;57.30;;;;;;5017125;28;20057;-55
2023/08/08 06:23:12;;;;;;;5.57;1.92;;;17.00;57.40;;;;;;5015552;28;20061;-56
2023/08/08 06:25:40;;;;;;;5.88;1.80;;;17.00;57.40;;;;;;5015990;28;20057;-57
2023/08/08 06:28:07;;;;;;;3.90;1.42;;;17.00;57.40;;;;;;5017171;28;20065;-55
2023/08/08 06:30:34;;;;;;;2.15;1.30;;;17.10;57.30;;;;;;5018927;28;20060;-56
2023/08/08 06:33:02;;;;;;;4.70;1.95;;;17.20;57.40;;;;;;5018047;28;20405;-57
2023/08/08 06:35:30;;;;;;;5.25;1.90;;;17.20;57.40;;;;;;5017297;28;20056;-49
2023/08/08 06:37:58;;;;;;;3.60;1.52;;;17.30;57.40;;;;;;5018265;28;20497;-54
2023/08/08 06:40:25;;;;;;;2.97;1.70;;;17.30;57.40;;;;;;5019039;28;20058;-52
2023/08/08 06:42:52;;;;;;;4.57;1.80;;;17.30;57.50;;;;;;5018641;28;20382;-53
2023/08/08 06:45:20;;;;;;;3.40;1.67;;;17.40;57.50;;;;;;5017282;28;20064;-55
2023/08/08 06:47:47;;;;;;;4.65;1.75;;;17.50;57.60;;;;;;5019166;28;20621;-56
2023/08/08 06:50:14;;;;;;;5.35;1.85;;;17.50;57.50;;;;;;5019475;28;20057;-55
2023/08/08 06:52:43;;;;;;;6.53;1.90;;;17.60;57.50;;;;;;5013845;28;20058;-57
2023/08/08 06:55:11;;;;;;;3.65;1.35;;;17.60;57.60;;;;;;5016562;28;20054;-48
2023/08/08 06:57:38;;;;;;;6.47;1.67;;;17.60;57.60;;;;;;5015152;28;20053;-44
2023/08/08 07:00:08;;;;;;;5.80;1.67;;;17.70;57.70;;;;;;5017396;28;20049;-43
2023/08/08 07:02:35;;;;;;;9.25;2.00;;;17.70;57.70;;;;;;5012692;28;20080;-49
2023/08/08 07:05:03;;;;;;;5.68;1.67;;;17.80;57.70;;;;;;5013740;28;20052;-44
2023/08/08 07:07:33;;;;;;;4.65;1.42;;;17.90;57.80;;;;;;5012988;28;20056;-43
2023/08/08 07:10:01;;;;;;;4.00;1.67;;;17.90;57.70;;;;;;5002307;28;20058;-46
2023/08/08 07:12:29;;;;;;;2.60;1.90;;;17.90;57.70;;;;;;5001000;28;20057;-49
2023/08/08 07:14:56;;;;;;;4.03;1.92;;;18.00;57.80;;;;;;5015379;28;20084;-49
2023/08/08 07:17:24;;;;;;;3.63;1.92;;;18.10;57.70;;;;;;5017189;28;20053;-44
2023/08/08 07:19:51;;;;;;;5.25;2.10;;;18.10;57.60;;;;;;5016331;28;20057;-44
2023/08/08 07:22:18;;;;;;;3.05;1.70;;;18.20;57.60;;;;;;5014018;28;20067;-47
2023/08/08 07:24:46;;;;;;;4.82;2.40;;;18.20;57.50;;;;;;5015900;28;20056;-45
2023/08/08 07:27:14;;;;;;;3.97;2.03;;;18.30;57.60;;;;;;5014236;28;20129;-45
2023/08/08 07:29:42;;;;;;;5.78;2.10;;;18.30;57.50;;;;;;5015370;28;20489;-45
2023/08/08 07:32:10;;;;;;;4.85;1.95;;;18.30;57.40;;;;;;5016631;28;20060;-46
2023/08/08 07:34:37;;;;;;;4.32;1.73;;;18.40;57.40;;;;;;5018103;28;20505;-47
2023/08/08 07:37:04;;;;;;;5.10;2.22;;;18.40;57.40;;;;;;5010647;28;20052;-46
2023/08/08 07:39:31;;;;;;;4.68;2.13;;;18.50;57.40;;;;;;5021172;28;20053;-44
2023/08/08 07:41:59;;;;;;;6.00;2.10;;;18.50;57.30;;;;;;5018570;28;20092;-48
2023/08/08 07:44:28;;;;;;;11.48;2.83;;;18.50;57.30;;;;;;5022834;28;20094;-49
2023/08/08 07:46:55;;;;;;;5.05;2.00;;;18.50;57.20;;;;;;5019344;28;20045;-45
2023/08/08 07:49:22;;;;;;;3.60;1.90;;;18.60;57.10;;;;;;5020222;28;20057;-43
2023/08/08 07:51:50;;;;;;;3.38;1.70;;;18.60;56.90;;;;;;5016663;28;20156;-49
2023/08/08 07:54:17;;;;;;;5.78;2.03;;;18.60;56.90;;;;;;5021468;28;20046;-49
2023/08/08 07:56:44;;;;;;;3.10;1.90;;;18.60;56.80;;;;;;5016584;28;20049;-46
2023/08/08 07:59:12;;;;;;;3.85;1.73;;;18.70;56.80;;;;;;5020864;28;20416;-46
2023/08/08 08:01:41;;;;;;;3.95;1.63;;;18.70;56.80;;;;;;5018169;28;20057;-47
2023/08/08 08:04:08;;;;;;;3.42;1.60;;;18.70;56.90;;;;;;5017649;28;20060;-49
2023/08/08 08:06:35;;;;;;;5.18;1.73;;;18.70;56.90;;;;;;5022338;28;20057;-47
2023/08/08 08:09:03;;;;;;;4.13;1.70;;;18.80;56.90;;;;;;5019098;28;20053;-44
2023/08/08 08:11:30;;;;;;;4.32;1.85;;;18.80;56.70;;;;;;5020042;28;20056;-50
2023/08/08 08:13:57;;;;;;;5.97;1.98;;;18.80;55.70;;;;;;5021990;28;20069;-51
2023/08/08 08:16:25;;;;;;;4.03;1.88;;;18.90;55.30;;;;;;5020775;28;20064;-53
2023/08/08 08:18:53;;;;;;;3.97;1.60;;;18.90;55.40;;;;;;5021566;28;20057;-53
2023/08/08 08:21:20;;;;;;;5.32;2.10;;;19.00;55.10;;;;;;5018668;28;20062;-57
2023/08/08 08:23:49;;;;;;;4.32;1.80;;;19.00;54.70;;;;;;5015287;28;20053;-55
2023/08/08 08:26:16;;;;;;;4.85;1.58;;;19.00;54.60;;;;;;5017641;28;20690;-56
2023/08/08 08:28:43;;;;;;;5.07;1.55;;;19.10;54.70;;;;;;5020370;28;20045;-56
2023/08/08 08:31:11;;;;;;;4.38;1.65;;;19.20;54.70;;;;;;5021431;28;20053;-54
2023/08/08 08:33:38;;;;;;;6.80;1.80;;;19.20;54.30;;;;;;5021029;28;20057;-55
2023/08/08 08:36:07;;;;;;;3.63;1.60;;;19.20;54.30;;;;;;5022004;28;20049;-54
2023/08/08 08:38:34;;;;;;;4.75;1.73;;;19.30;54.30;;;;;;5020303;28;20057;-54
2023/08/08 08:41:04;;;;;;;4.45;1.55;;;19.30;54.00;;;;;;5020698;28;20060;-56
2023/08/08 08:43:32;;;;;;;4.90;1.70;;;19.40;53.40;;;;;;5020034;28;20816;-56
2023/08/08 08:46:02;;;;;;;3.50;1.83;;;19.40;52.90;;;;;;5019841;28;20064;-54
2023/08/08 08:48:29;;;;;;;2.35;1.35;;;19.40;53.20;;;;;;5020518;28;20060;-56
2023/08/08 08:50:57;;;;;;;7.28;1.92;;;19.40;53.20;;;;;;5021273;28;20500;-55
2023/08/08 08:53:26;;;;;;;5.13;1.95;;;19.50;52.50;;;;;;5020669;28;20064;-56
2023/08/08 08:55:54;;;;;;;4.07;2.08;;;19.50;52.60;;;;;;5011383;28;20072;-55
2023/08/08 08:58:23;;;;;;;3.97;1.70;;;19.60;52.50;;;;;;5020162;28;20057;-56
2023/08/08 09:00:51;;;;;;;8.13;1.98;;;19.60;52.40;;;;;;5019674;28;20531;-55
2023/08/08 09:03:19;;;;;;;6.57;1.92;;;19.70;52.40;;;;;;5018542;28;20049;-53
2023/08/08 09:05:48;;;;;;;5.20;2.13;;;19.80;52.40;;;;;;5020176;28;20057;-55
2023/08/08 09:08:15;;;;;;;3.90;1.83;;;19.80;52.20;;;;;;5019531;28;20057;-56
2023/08/08 09:10:44;;;;;;;9.40;1.90;;;19.90;52.30;;;;;;5021139;28;20065;-55
2023/08/08 09:13:11;;;;;;;5.57;1.80;;;19.90;52.30;;;;;;5018333;28;20065;-54
2023/08/08 09:15:39;;;;;;;7.75;2.40;;;20.00;52.50;;;;;;5017242;28;20061;-56
2023/08/08 09:18:08;;;;;;;3.83;2.00;;;20.10;52.50;;;;;;5017889;28;20045;-58
2023/08/08 09:20:35;;;;;;;5.93;2.40;;;20.10;52.40;;;;;;5018498;28;20060;-53
2023/08/08 09:23:03;;;;;;;5.63;2.50;;;20.20;52.30;;;;;;5008776;28;20497;-53
2023/08/08 09:25:30;;;;;;;5.13;1.90;;;20.20;51.70;;;;;;5019102;28;20059;-48
2023/08/08 09:27:59;;;;;;;4.13;2.17;;;20.30;51.90;;;;;;5018582;28;20049;-47
2023/08/08 09:30:27;;;;;;;6.38;2.20;;;20.40;51.40;;;;;;5020157;28;20072;-47
2023/08/08 09:32:58;;;;;;;7.82;2.53;;;20.40;51.40;;;;;;5015539;28;20524;-45
2023/08/08 09:35:25;;;;;;;6.20;2.10;;;20.40;51.40;;;;;;5011621;28;20053;-45
2023/08/08 09:37:54;;;;;;;6.93;2.13;;;20.50;51.40;;;;;;5018262;28;20133;-47
2023/08/08 09:40:23;;;;;;;8.27;2.22;;;20.60;51.30;;;;;;5015664;28;20540;-48
2023/08/08 09:42:52;;;;;;;5.72;2.22;;;20.60;51.20;;;;;;5018280;28;20057;-47
2023/08/08 09:45:22;;;;;;;6.00;2.42;;;20.60;51.30;;;;;;5020078;28;20520;-43
2023/08/08 09:47:50;;;;;;;4.10;2.05;;;20.70;51.30;;;;;;5018957;28;20045;-45
2023/08/08 09:50:18;;;;;;;4.65;1.80;;;20.70;51.40;;;;;;5020114;28;20064;-48
2023/08/08 09:52:46;;;;;;;6.53;2.00;;;20.80;51.30;;;;;;5018342;28;20494;-47
2023/08/08 09:55:15;;;;;;;11.65;2.88;;;20.80;50.40;;;;;;5016788;28;20204;-46
2023/08/08 09:57:44;;;;;;;6.10;1.80;;;20.90;50.20;;;;;;5014570;28;20053;-48
2023/08/08 10:00:15;;;;;;;3.65;1.45;;;20.90;50.10;;;;;;5017206;28;20393;-47
2023/08/08 10:02:45;;;;;;;3.40;1.45;;;21.00;49.70;;;;;;5019102;28;20424;-43
2023/08/08 10:05:14;;;;;;;3.30;1.40;;;21.00;49.30;;;;;;5014270;28;20057;-43
2023/08/08 10:07:42;;;;;;;9.68;2.22;;;21.00;48.60;;;;;;5017044;28;20053;-48
2023/08/08 10:10:10;;;;;;;5.05;1.75;;;21.00;47.60;;;;;;5018095;28;20418;-45
2023/08/08 10:12:38;;;;;;;3.33;1.60;;;21.00;48.00;;;;;;5016604;28;20076;-48
2023/08/08 10:15:09;;;;;;;3.83;1.50;;;21.00;47.90;;;;;;5011544;28;20045;-48
2023/08/08 10:17:38;;;;;;;6.95;1.52;;;21.00;47.90;;;;;;5017385;28;20083;-45
2023/08/08 10:20:11;;;;;;;5.00;1.90;;;21.10;48.00;;;;;;5016701;28;20046;-48
2023/08/08 10:22:42;;;;;;;5.53;1.65;;;21.10;48.20;;;;;;5018521;28;20064;-48
2023/08/08 10:25:10;;;;;;;4.95;1.50;;;21.10;47.90;;;;;;5017414;28;20056;-44
2023/08/08 10:27:40;;;;;;;5.68;1.80;;;21.10;48.00;;;;;;5017844;28;20388;-45
2023/08/08 10:30:10;;;;;;;4.80;1.63;;;21.10;47.80;;;;;;5019606;28;21127;-48
2023/08/08 10:32:41;;;;;;;5.05;1.30;;;21.20;47.60;;;;;;5019462;28;20409;-48
2023/08/08 10:35:11;;;;;;;3.60;1.50;;;21.20;47.50;;;;;;5019432;28;20049;-45
2023/08/08 10:37:39;;;;;;;4.20;1.45;;;21.20;47.80;;;;;;5019012;28;20054;-45
2023/08/08 10:40:08;;;;;;;7.95;1.98;;;21.20;47.80;;;;;;5019317;28;20056;-52
2023/08/08 10:42:43;;;;;;;4.35;1.52;;;21.30;47.70;;;;;;5017127;28;20053;-47
2023/08/08 10:45:13;;;;;;;7.38;1.38;;;21.30;47.00;;;;;;5019797;28;20053;-47
2023/08/08 10:47:41;;;;;;;2.72;1.30;;;21.30;47.50;;;;;;5018130;28;20061;-48
2023/08/08 10:50:12;;;;;;;6.82;1.60;;;21.30;47.70;;;;;;5018854;28;20534;-43
2023/08/08 10:52:51;;;;;;;5.93;1.90;;;21.30;47.60;;;;;;5017530;28;20619;-49
2023/08/08 10:55:22;;;;;;;5.68;1.67;;;21.30;47.60;;;;;;5018644;28;20584;-42
2023/08/08 10:57:57;;;;;;;3.67;1.20;;;21.30;46.90;;;;;;5017758;28;20061;-41
2023/08/08 11:00:26;;;;;;;4.97;1.33;;;21.30;47.10;;;;;;5018529;28;20512;-45
2023/08/08 11:02:55;;;;;;;7.00;1.73;;;21.40;47.20;;;;;;5017048;28;20055;-46
2023/08/08 11:05:24;;;;;;;5.38;1.38;;;21.40;47.10;;;;;;5019128;28;20060;-51
2023/08/08 11:07:52;;;;;;;3.63;1.15;;;21.40;47.10;;;;;;5016907;28;20045;-49
2023/08/08 11:10:19;;;;;;;3.20;1.58;;;21.40;46.50;;;;;;5021621;28;20077;-48
2023/08/08 11:12:58;;;;;;;4.22;1.38;;;21.50;46.90;;;;;;5021161;28;20072;-45
2023/08/08 11:15:27;;;;;;;3.20;1.17;;;21.50;46.40;;;;;;5022837;28;20080;-46
2023/08/08 11:17:55;;;;;;;4.93;1.20;;;21.60;46.90;;;;;;5021340;28;20125;-48
2023/08/08 11:20:24;;;;;;;3.75;1.70;;;21.60;47.00;;;;;;5022705;28;20057;-46
2023/08/08 11:22:53;;;;;;;3.33;1.10;;;21.70;46.60;;;;;;5022384;28;20053;-47
2023/08/08 11:25:21;;;;;;;2.20;1.33;;;21.70;46.70;;;;;;5020482;28;20524;-45
2023/08/08 11:27:52;;;;;;;3.30;1.27;;;21.70;46.70;;;;;;5019776;28;20058;-48
2023/08/08 11:30:20;;;;;;;4.00;1.50;;;21.70;46.20;;;;;;5023960;28;20057;-47
2023/08/08 11:32:48;;;;;;;3.92;1.42;;;21.70;46.40;;;;;;5036963;28;21009;-50
2023/08/08 11:35:17;;;;;;;5.43;1.85;;;21.80;46.10;;;;;;5041387;28;20056;-49
2023/08/08 11:37:47;;;;;;;5.15;1.48;;;21.80;46.60;;;;;;5040744;28;20057;-49
2023/08/08 11:40:15;;;;;;;3.80;1.30;;;21.80;46.20;;;;;;5041594;28;20064;-47
2023/08/08 11:42:44;;;;;;;4.15;1.45;;;21.80;46.10;;;;;;5038307;28;20064;-46
2023/08/08 11:45:12;;;;;;;6.90;1.90;;;21.80;46.10;;;;;;5037023;28;20065;-45
2023/08/08 11:47:40;;;;;;;6.80;1.77;;;21.90;45.80;;;;;;5020764;28;20524;-48
2023/08/08 11:50:09;;;;;;;4.78;1.20;;;21.80;45.70;;;;;;5021721;28;20488;-47
2023/08/08 11:52:40;;;;;;;3.72;1.38;;;21.80;46.30;;;;;;5019952;28;20408;-48
2023/08/08 11:55:10;;;;;;;3.47;1.50;;;21.80;46.20;;;;;;5015559;28;20509;-49
2023/08/08 11:57:38;;;;;;;7.35;1.98;;;21.80;46.20;;;;;;5020304;28;20057;-48
2023/08/08 12:00:07;;;;;;;6.10;1.70;;;21.80;46.30;;;;;;5023055;28;20049;-49
2023/08/08 12:02:34;;;;;;;5.43;1.60;;;21.80;46.50;;;;;;5023136;28;20057;-47
2023/08/08 12:05:05;;;;;;;5.60;1.73;;;21.80;46.80;;;;;;5023297;28;20492;-46
2023/08/08 12:07:34;;;;;;;4.60;1.58;;;21.80;46.90;;;;;;5023336;28;20057;-50
2023/08/08 12:10:01;;;;;;;4.10;1.45;;;21.80;47.10;;;;;;5022879;28;20401;-46
2023/08/08 12:12:32;;;;;;;9.07;1.30;;;21.80;46.90;;;;;;5021150;28;20270;-48
2023/08/08 12:14:59;;;;;;;4.38;1.60;;;21.80;46.70;;;;;;5021865;28;20061;-54
2023/08/08 12:17:27;;;;;;;3.45;1.25;;;21.80;46.60;;;;;;5021380;28;20481;-45
2023/08/08 12:19:58;;;;;;;8.13;2.00;;;21.80;46.40;;;;;;5018062;28;20049;-45
2023/08/08 12:22:25;;;;;;;3.42;1.70;;;21.80;46.80;;;;;;5021219;28;20049;-46
2023/08/08 12:24:52;;;;;;;4.95;1.40;;;21.80;46.80;;;;;;5021762;28;20421;-48
2023/08/08 12:27:20;;;;;;;4.60;1.65;;;21.80;46.80;;;;;;5021482;28;20057;-46
2023/08/08 12:29:48;;;;;;;7.60;1.75;;;21.70;46.80;;;;;;5030304;28;20060;-47
2023/08/08 12:32:15;;;;;;;5.20;1.70;;;21.80;46.80;;;;;;5021048;28;20052;-46
2023/08/08 12:34:43;;;;;;;5.93;1.70;;;21.80;46.70;;;;;;5020848;28;20057;-51
2023/08/08 12:37:10;;;;;;;3.97;1.35;;;21.70;46.80;;;;;;5022142;28;20421;-45
2023/08/08 12:39:37;;;;;;;4.80;1.50;;;21.70;47.40;;;;;;5021543;28;20045;-52
2023/08/08 12:42:04;;;;;;;6.00;1.40;;;21.70;47.10;;;;;;5029031;28;20361;-49
2023/08/08 12:44:32;;;;;;;2.20;1.50;;;21.70;46.90;;;;;;5029767;28;20104;-50
2023/08/08 12:47:00;;;;;;;4.22;1.48;;;21.70;47.10;;;;;;5022748;28;20053;-55
2023/08/08 12:49:27;;;;;;;3.50;1.23;;;21.70;47.20;;;;;;5020892;28;20060;-45
2023/08/08 12:51:55;;;;;;;4.57;1.80;;;21.70;47.20;;;;;;5022655;28;20053;-48